Etusivu
METAR-TAF:

METAR-TAF

Lentoasemat :

Area_Regional_Airport

South Haven, Michigan, Yhdysvallat

Leveyspiiri: 42-21-03N, Pituuspiiri: 086-15-22W, korkeus merenpinnasta: 203 m

Tämänhetkinen sää

Tämä raportti tehtiin 9 minuuttia sitten, kello 09.55 UTC
Tuuli 9 kn pohjoisen/luoteesta
Lämpötila 9°C
Kosteus 71%
Ilmanpaine 1014 hPa
Näkyvyys: 16.1 km
Hajanaisia pilviä 2600 ft:n korkeudessa
Pilvistä 3600 ft:n korkeudessa

METAR: KLWA 170955Z AUTO 33009KT 10SM SCT026 OVC036 09/04 A2995 RMK AO2 T00930037

Aika: 06:04 (10:04 UTC)


TAF: puuttuu

Säähavainnot ja -ennusteet yli 4000 lentoasemalta (METAR- ja TAF-raportit).

Käytössä olevat sääasemat on merkitty karttaan keltaisilla ja punaisilla pisteillä.

Aseta hiiri pisteen päälle nähdäksesi sääaseman nimen.

Klikkaa sitten nähdäksesi säähavainnot ja -ennusteet.

Kartan vaihtaminen: klikkaa mustalla rastilla varustettuja vihreitä pisteitä, niin voit zoomata sisään; viivalla varustettua vihreää pistettä, niin voit zoomata ulos tai vihreitä nuolia, niin pääset viereisille kartoille.


METAR-TAF: